AirNav   TITAN Aviation Fuels
 
 1792 users online  

MO28 Blue Springs Heliport
Blue Springs, Missouri, USA

GOING TO BLUE SPRINGS?


FAA INFORMATION EFFECTIVE 17 JUNE 2021

Location

FAA Identifier: MO28
Lat/Long: 39-01-36.8700N 094-15-52.0600W
39-01.614500N 094-15.867667W
39.0269083,-94.2644611
(estimated)
Elevation: 287 ft. / 87 m (estimated)
Variation: 03E (2000)
Time zone: UTC -5 (UTC -6 during Standard Time)
Zip code: 64014

Heliport Operations

Heliport use: Private use, MEDICAL USE.
Activation date: 12/2000
Control tower: no
ARTCC: KANSAS CITY CENTER
FSS: COLUMBIA FLIGHT SERVICE STATION
Attendance: CONTINUOUS
Wind indicator: yes
Segmented circle: no

Heliport Communications

WX ASOS at LXT (6 nm SW): 124.175 (816-347-9807)
WX ASOS at MKC (16 nm W): PHONE 816-329-2843
WX AWOS-3 at GPH (18 nm N): 120.275 (816-407-3399)

Nearby radio navigation aids

VOR radial/distance  VOR name  Freq  Var
ANXr230/7.5NAPOLEON VORTAC114.0007E
MCIr120/26.9KANSAS CITY VORTAC113.2505E

Heliport Services

Runway Information

Helipad H1

Dimensions: 20 x 20 ft. / 6 x 6 m
Surface: concrete
Latitude: 39-01.614500N
Longitude: 094-15.867667W
Elevation: 287.0 ft.
Traffic pattern: leftleft

Heliport Ownership and Management from official FAA records

Ownership: Privately-owned
Owner: ST. MARY'S HOSPITAL
201 WEST R.D. MIZE RD
BLUE SPRINGS, MO 64014
Phone (816) 655-5542
Manager: JAMES MILAM
201 WEST R.D. MIZE RD
BLUE SPRINGS, MO 64014
Phone 816-655-5541

Additional Remarks

A52-H1 RY H1 60 FT TREES & PLINE 72 FT NORTH; 15 FT BLDG 73 FT SOUTH; 60 FT BLDG 223 FT SOUTH; & 30 FT LGT POLES 59 FT SOUTHEAST OF HELIPAD.
OWNER DESIRES HELIPORT NOT BE CHARTED.
FOR CD CTC KANSAS CITY APCH AT 816-329-2710.

Instrument Procedures

There are no published instrument procedures at MO28.

Some nearby airports with instrument procedures:

3GV - East Kansas City Airport (2 nm E)
KLXT - Lee's Summit Municipal Airport (6 nm SW)
KMKC - Charles B Wheeler Downtown Airport (16 nm W)
KGPH - Midwest National Air Center Airport (18 nm N)
3EX - Excelsior Springs Memorial Airport (19 nm N)
 
Loc | Ops | Rwys | IFR | FBO | Links
Com | Nav | Svcs | Stats | Notes
Area around MO28 (Blue Springs Heliport)
 
Road maps at: MapQuest Bing Google
 
Aerial photo
No photo
 
Sectional chart

 
Airport distance calculator
Flying to Blue Springs Heliport? Find the distance to fly.

From to MO28

Sunrise and sunset
Times for 24-Jun-2021
 Local
(UTC-5)
 Zulu
(UTC)
Morning civil twilight05:2110:21
Sunrise05:5310:53
Sunset20:4601:46
Evening civil twilight21:1802:18

Current date and time
Zulu (UTC)  24-Jun-2021 17:29:38
Local (UTC-5)  24-Jun-2021 12:29:38
 
METAR
KLXT 
6nm SW 
241717Z AUTO 13014G22KT 10SM SCT010 SCT018 BKN022 25/23 A2988 RMK AO2 LTG DSNT NW PRESFR T02500233
KMKC 
17nm W 
241713Z 14012G21KT 10SM SCT016 BKN021 27/23 A2986 RMK AO2 LTG DSNT N AND NW T02720233
KGPH 
18nm N 
241535Z AUTO 11007KT 10SM 22/21 A2992 RMK AO2 LTG DSNT SE
TAF
KMKC 
17nm W 
241624Z 2416/2512 12003KT P6SM BKN013 BKN018 BKN026 FM241800 18015G25KT P6SM SCT035 FM250100 18012KT P6SM VCTS BKN045CB FM250900 17008KT P6SM BKN040
NOTAMs
Click for the latest NOTAMs
NOTAMs are issued by the DoD/FAA and will open in a separate window not controlled by AirNav.

 

 
 

Would you like to see your business listed on this page?

 If your business provides an interesting product or service to pilots, flight crews, aircraft, or users of the Blue Springs Heliport, you should consider listing it here.  To start the listing process, click on the button below
 
Add a business
 

Other Pages about Blue Springs Heliport

Update a link
 
Copyright © AirNav, LLC. All rights reserved. Privacy Policy  Contact